createdAt,value
2022-08-25T00:00:59.081Z,65.10
2022-08-25T00:01:59.052Z,64.45
2022-08-25T00:02:59.097Z,65.55
2022-08-25T00:03:59.035Z,65.85
2022-08-25T00:04:59.039Z,61.36
2022-08-25T00:05:59.066Z,63.03
2022-08-25T00:07:02.904Z,63.43
2022-08-25T00:08:00.081Z,66.76
2022-08-25T00:08:58.987Z,64.46
2022-08-25T00:09:58.979Z,63.38
2022-08-25T00:11:03.469Z,62.88
2022-08-25T00:11:58.970Z,63.08
2022-08-25T00:12:58.949Z,62.94
2022-08-25T00:13:58.938Z,63.22
2022-08-25T00:14:58.929Z,62.58
2022-08-25T00:15:58.966Z,66.87
2022-08-25T00:16:58.934Z,66.27
2022-08-25T00:17:58.977Z,64.22
2022-08-25T00:18:58.881Z,67.15
2022-08-25T00:19:58.866Z,66.95
2022-08-25T00:20:58.867Z,67.69
2022-08-25T00:21:58.887Z,63.71
2022-08-25T00:22:58.848Z,64.75
2022-08-25T00:23:58.841Z,62.07
2022-08-25T00:24:58.830Z,63.83
2022-08-25T00:25:58.822Z,64.52
2022-08-25T00:26:58.824Z,67.50
2022-08-25T00:27:58.793Z,62.10
2022-08-25T00:29:01.886Z,64.12
2022-08-25T00:29:58.787Z,61.40
2022-08-25T00:30:58.829Z,65.09
2022-08-25T00:31:58.784Z,65.98
2022-08-25T00:32:58.763Z,65.66
2022-08-25T00:33:58.744Z,64.90
2022-08-25T00:34:58.734Z,66.41
2022-08-25T00:35:58.723Z,63.91
2022-08-25T00:36:58.734Z,63.94
2022-08-25T00:37:58.705Z,64.46
2022-08-25T00:38:58.698Z,63.62
2022-08-25T00:39:58.739Z,63.68
2022-08-25T00:40:58.674Z,64.21
2022-08-25T00:41:58.682Z,64.04
2022-08-25T00:42:58.655Z,63.29
2022-08-25T00:43:58.644Z,66.24
2022-08-25T00:44:58.639Z,64.66
2022-08-25T00:45:58.651Z,66.04
2022-08-25T00:46:58.635Z,64.26
2022-08-25T00:48:00.035Z,64.42
2022-08-25T00:48:58.591Z,64.68
2022-08-25T00:49:58.586Z,64.24
2022-08-25T00:50:58.572Z,64.15
2022-08-25T00:51:58.605Z,63.56
2022-08-25T00:52:58.555Z,64.77
2022-08-25T00:53:58.538Z,63.67
2022-08-25T00:55:01.912Z,64.62
2022-08-25T00:55:58.530Z,64.25
2022-08-25T00:56:58.540Z,62.94
2022-08-25T00:57:58.525Z,65.12
2022-08-25T00:58:58.494Z,64.28
2022-08-25T00:59:58.517Z,67.34
2022-08-25T01:00:58.484Z,65.99
2022-08-25T01:01:58.533Z,65.38
2022-08-25T01:02:58.476Z,62.36
2022-08-25T01:03:58.438Z,65.01
2022-08-25T01:04:58.433Z,64.13
2022-08-25T01:05:58.438Z,63.94
2022-08-25T01:06:58.481Z,63.22
2022-08-25T01:07:58.727Z,64.55
2022-08-25T01:08:58.398Z,64.27
2022-08-25T01:09:58.390Z,64.08
2022-08-25T01:10:58.382Z,65.24
2022-08-25T01:11:58.407Z,65.84
2022-08-25T01:12:58.348Z,67.30
2022-08-25T01:13:58.351Z,66.52
2022-08-25T01:14:58.337Z,66.86
2022-08-25T01:15:58.352Z,65.29
2022-08-25T01:16:58.327Z,65.80
2022-08-25T01:17:58.303Z,64.61
2022-08-25T01:18:58.300Z,63.92
2022-08-25T01:19:58.286Z,65.45
2022-08-25T01:20:58.271Z,66.15
2022-08-25T01:21:58.283Z,66.50
2022-08-25T01:22:58.259Z,66.97
2022-08-25T01:23:58.269Z,66.12
2022-08-25T01:24:58.238Z,62.38
2022-08-25T01:25:58.222Z,63.97
2022-08-25T01:26:58.229Z,64.40
2022-08-25T01:27:58.195Z,64.64
2022-08-25T01:28:58.197Z,65.57
2022-08-25T01:29:58.209Z,66.49
2022-08-25T01:30:58.286Z,64.77
2022-08-25T01:31:58.190Z,61.72
2022-08-25T01:32:58.162Z,62.75
2022-08-25T01:33:58.163Z,65.05
2022-08-25T01:34:58.148Z,65.75
2022-08-25T01:35:58.130Z,64.99
2022-08-25T01:36:58.144Z,66.51
2022-08-25T01:37:58.118Z,65.21
2022-08-25T01:38:58.104Z,65.73
2022-08-25T01:39:58.116Z,66.96
2022-08-25T01:40:58.079Z,66.50
2022-08-25T01:41:58.095Z,63.74
2022-08-25T01:42:58.065Z,63.91
2022-08-25T01:43:58.056Z,66.29
2022-08-25T01:44:58.044Z,65.55
2022-08-25T01:45:58.102Z,64.12
2022-08-25T01:46:58.045Z,64.05
2022-08-25T01:47:58.015Z,66.41
2022-08-25T01:48:58.017Z,64.88
2022-08-25T01:49:57.985Z,65.37
2022-08-25T01:50:57.984Z,64.76
2022-08-25T01:51:57.997Z,66.23
2022-08-25T01:52:57.963Z,64.65
2022-08-25T01:53:57.956Z,64.90
2022-08-25T01:54:57.959Z,64.86
2022-08-25T01:55:57.922Z,66.95
2022-08-25T01:56:57.939Z,67.27
2022-08-25T01:57:57.917Z,64.44
2022-08-25T01:58:57.910Z,66.63
2022-08-25T01:59:57.902Z,64.99
2022-08-25T02:00:57.927Z,62.87
2022-08-25T02:02:00.043Z,63.81
2022-08-25T02:05:43.985Z,64.77
2022-08-25T02:06:43.991Z,68.04
2022-08-25T02:07:43.964Z,66.21
2022-08-25T02:08:43.958Z,67.09
2022-08-25T02:09:45.063Z,68.41
2022-08-25T02:10:45.054Z,66.16
2022-08-25T02:11:45.068Z,64.88
2022-08-25T02:12:45.032Z,63.66
2022-08-25T02:13:45.015Z,65.92
2022-08-25T02:14:45.012Z,65.20
2022-08-25T02:15:45.010Z,66.91
2022-08-25T02:16:45.034Z,65.98
2022-08-25T02:17:44.984Z,65.77
2022-08-25T02:18:44.973Z,64.82
2022-08-25T02:19:44.962Z,66.57
2022-08-25T02:20:44.954Z,67.50
2022-08-25T02:21:44.964Z,67.66
2022-08-25T02:22:51.185Z,68.28
2022-08-25T02:23:45.930Z,65.26
2022-08-25T02:24:44.920Z,66.16
2022-08-25T02:25:44.905Z,67.12
2022-08-25T02:26:44.910Z,65.30
2022-08-25T02:27:44.882Z,66.78
2022-08-25T02:28:44.861Z,65.50
2022-08-25T02:29:44.851Z,67.61
2022-08-25T02:30:44.899Z,66.31
2022-08-25T02:31:44.861Z,68.61
2022-08-25T02:32:44.833Z,67.01
2022-08-25T02:33:44.820Z,67.25
2022-08-25T02:34:44.815Z,68.14
2022-08-25T02:35:44.801Z,67.56
2022-08-25T02:36:44.806Z,67.47
2022-08-25T02:37:44.786Z,67.75
2022-08-25T02:38:44.767Z,67.50
2022-08-25T02:39:45.789Z,65.41
2022-08-25T02:40:44.751Z,66.86
2022-08-25T02:41:44.748Z,67.26
2022-08-25T02:42:44.743Z,64.85
2022-08-25T02:43:44.720Z,65.60
2022-08-25T02:44:44.711Z,66.16
2022-08-25T02:45:44.773Z,67.78
2022-08-25T02:46:44.704Z,66.50
2022-08-25T02:47:44.683Z,66.32
2022-08-25T02:48:44.670Z,66.54
2022-08-25T02:49:44.649Z,67.29
2022-08-25T02:50:44.650Z,67.23
2022-08-25T02:51:44.658Z,65.45
2022-08-25T02:52:44.639Z,66.11
2022-08-25T02:53:44.612Z,65.71
2022-08-25T02:54:44.601Z,65.72
2022-08-25T02:55:44.599Z,66.06
2022-08-25T02:56:44.599Z,66.74
2022-08-25T02:57:44.568Z,66.47
2022-08-25T02:58:44.569Z,67.29
2022-08-25T02:59:44.564Z,66.67
2022-08-25T03:00:44.605Z,67.34
2022-08-25T03:01:44.549Z,66.07
2022-08-25T03:02:44.528Z,65.91
2022-08-25T03:03:44.686Z,68.37
2022-08-25T03:04:44.564Z,68.21
2022-08-25T03:05:44.492Z,66.71
2022-08-25T03:07:16.394Z,66.54
2022-08-25T03:07:44.471Z,67.01
2022-08-25T03:08:44.472Z,67.10
2022-08-25T03:09:44.463Z,68.74
2022-08-25T03:10:44.457Z,66.64
2022-08-25T03:11:44.463Z,67.59
2022-08-25T03:12:44.437Z,67.35
2022-08-25T03:13:44.420Z,66.48
2022-08-25T03:14:44.429Z,67.19
2022-08-25T03:15:44.411Z,66.39
2022-08-25T03:16:46.238Z,66.02
2022-08-25T03:17:45.850Z,65.97
2022-08-25T03:18:44.376Z,66.57
2022-08-25T03:19:44.369Z,64.99
2022-08-25T03:20:44.401Z,66.88
2022-08-25T03:21:44.357Z,65.41
2022-08-25T03:22:44.339Z,69.23
2022-08-25T03:23:44.339Z,66.82
2022-08-25T03:24:44.327Z,67.92
2022-08-25T03:25:44.306Z,67.06
2022-08-25T03:26:44.320Z,65.43
2022-08-25T03:27:44.298Z,64.82
2022-08-25T03:28:44.292Z,66.20
2022-08-25T03:29:44.269Z,66.94
2022-08-25T03:30:44.268Z,66.73
2022-08-25T03:31:44.314Z,65.35
2022-08-25T03:32:44.250Z,66.33
2022-08-25T03:33:44.232Z,65.28
2022-08-25T03:34:44.226Z,65.31
2022-08-25T03:35:44.208Z,67.57
2022-08-25T03:36:44.230Z,68.45
2022-08-25T03:37:44.194Z,67.90
2022-08-25T03:38:44.185Z,68.22
2022-08-25T03:39:44.336Z,68.67
2022-08-25T03:40:44.171Z,69.24
2022-08-25T03:41:44.168Z,67.67
2022-08-25T03:42:45.173Z,69.01
2022-08-25T03:43:45.148Z,68.58
2022-08-25T03:44:44.135Z,66.99
2022-08-25T03:45:44.161Z,68.07
2022-08-25T03:46:44.122Z,68.19
2022-08-25T03:47:44.098Z,68.64
2022-08-25T03:48:44.094Z,68.47
2022-08-25T03:49:44.081Z,68.71
2022-08-25T03:50:44.118Z,70.01
2022-08-25T03:51:45.080Z,67.82
2022-08-25T03:52:44.058Z,67.08
2022-08-25T03:53:44.030Z,66.67
2022-08-25T03:54:44.026Z,67.47
2022-08-25T03:55:44.013Z,67.74
2022-08-25T03:56:44.034Z,67.07
2022-08-25T03:57:43.993Z,68.45
2022-08-25T03:58:43.986Z,67.69
2022-08-25T03:59:44.979Z,67.96
2022-08-25T04:00:43.988Z,70.11
2022-08-25T04:01:43.963Z,68.42
2022-08-25T04:02:44.017Z,68.32
2022-08-25T04:03:43.943Z,69.63
2022-08-25T04:04:43.924Z,69.68
2022-08-25T04:05:43.905Z,69.37
2022-08-25T04:06:43.922Z,68.05
2022-08-25T04:07:44.899Z,68.98
2022-08-25T04:08:43.903Z,68.89
2022-08-25T04:09:43.883Z,67.59
2022-08-25T04:10:43.879Z,69.00
2022-08-25T04:11:43.877Z,68.87
2022-08-25T04:12:43.854Z,69.75
2022-08-25T04:13:43.832Z,69.55
2022-08-25T04:14:43.834Z,68.59
2022-08-25T04:15:43.816Z,68.93
2022-08-25T04:16:43.930Z,68.37
2022-08-25T04:17:43.796Z,70.03
2022-08-25T04:18:43.788Z,69.52
2022-08-25T04:19:43.778Z,67.97
2022-08-25T04:20:46.695Z,69.21
2022-08-25T04:21:44.775Z,70.13
2022-08-25T04:22:45.194Z,69.83
2022-08-25T04:23:43.734Z,69.41
2022-08-25T04:24:43.750Z,68.99
2022-08-25T04:25:43.718Z,69.14
2022-08-25T04:26:43.722Z,68.77
2022-08-25T04:27:43.694Z,68.54
2022-08-25T04:28:43.688Z,67.87
2022-08-25T04:29:43.671Z,69.81
2022-08-25T04:30:43.689Z,70.14
2022-08-25T04:31:43.783Z,70.17
2022-08-25T04:32:43.647Z,70.32
2022-08-25T04:33:43.643Z,69.06
2022-08-25T04:34:43.630Z,69.16
2022-08-25T04:35:43.617Z,69.34
2022-08-25T04:36:43.620Z,68.65
2022-08-25T04:37:43.592Z,70.38
2022-08-25T04:38:43.625Z,70.61
2022-08-25T04:39:43.580Z,69.40
2022-08-25T04:40:43.630Z,68.86
2022-08-25T04:41:43.576Z,68.77
2022-08-25T04:42:43.649Z,70.49
2022-08-25T04:43:43.544Z,69.68
2022-08-25T04:44:43.525Z,68.69
2022-08-25T04:45:43.555Z,68.94
2022-08-25T04:46:43.525Z,70.20
2022-08-25T04:47:43.603Z,69.48
2022-08-25T04:48:43.492Z,69.92
2022-08-25T04:49:43.486Z,70.11
2022-08-25T04:50:43.481Z,70.39
2022-08-25T04:51:43.483Z,69.22
2022-08-25T04:52:43.459Z,67.67
2022-08-25T04:53:43.443Z,68.03
2022-08-25T04:54:43.448Z,68.44
2022-08-25T04:55:43.431Z,69.61
2022-08-25T04:56:43.427Z,67.49
2022-08-25T04:57:43.422Z,70.00
2022-08-25T04:58:43.482Z,69.51
2022-08-25T04:59:43.384Z,68.58
2022-08-25T05:00:43.413Z,69.34
2022-08-25T05:01:43.376Z,68.01
2022-08-25T05:02:43.357Z,67.74
2022-08-25T05:03:43.354Z,68.05
2022-08-25T05:04:43.424Z,67.88
2022-08-25T05:05:43.334Z,66.81
2022-08-25T05:06:43.336Z,66.92
2022-08-25T05:07:43.304Z,68.52
2022-08-25T05:08:46.030Z,66.28
2022-08-25T05:09:43.291Z,67.17
2022-08-25T05:10:43.279Z,65.96
2022-08-25T05:11:43.283Z,67.84
2022-08-25T05:12:43.254Z,66.87
2022-08-25T05:13:43.248Z,66.72
2022-08-25T05:14:43.245Z,67.03
2022-08-25T05:15:43.269Z,66.43
2022-08-25T05:16:43.301Z,67.25
2022-08-25T05:17:43.213Z,66.44
2022-08-25T05:18:43.203Z,67.06
2022-08-25T05:19:44.192Z,67.48
2022-08-25T05:20:43.173Z,66.98
2022-08-25T05:21:43.184Z,65.98
2022-08-25T05:22:43.184Z,67.26
2022-08-25T05:23:43.156Z,67.64
2022-08-25T05:24:43.143Z,67.88
2022-08-25T05:25:44.136Z,68.41
2022-08-25T05:26:43.138Z,67.76
2022-08-25T05:27:43.116Z,68.32
2022-08-25T05:28:43.097Z,67.92
2022-08-25T05:29:43.097Z,67.23
2022-08-25T05:30:43.084Z,66.31
2022-08-25T05:31:47.055Z,67.37
2022-08-25T05:32:44.062Z,68.31
2022-08-25T05:33:43.050Z,66.75
2022-08-25T05:34:43.042Z,67.14
2022-08-25T05:35:43.034Z,65.72
2022-08-25T05:36:43.037Z,67.21
2022-08-25T05:37:43.016Z,68.46
2022-08-25T05:38:43.004Z,69.55
2022-08-25T05:39:43.002Z,68.63
2022-08-25T05:40:42.990Z,69.01
2022-08-25T05:41:42.988Z,69.16
2022-08-25T05:42:42.964Z,67.03
2022-08-25T05:43:42.952Z,68.24
2022-08-25T05:44:42.942Z,67.72
2022-08-25T05:45:43.014Z,69.44
2022-08-25T05:46:42.940Z,67.19
2022-08-25T05:47:42.919Z,68.69
2022-08-25T05:48:42.893Z,65.72
2022-08-25T05:49:42.892Z,68.34
2022-08-25T05:50:42.904Z,68.50
2022-08-25T05:51:42.886Z,68.80
2022-08-25T05:52:42.878Z,69.20
2022-08-25T05:53:42.850Z,68.40
2022-08-25T05:54:43.091Z,68.47
2022-08-25T05:55:42.836Z,66.98
2022-08-25T05:56:42.826Z,68.50
2022-08-25T05:57:42.808Z,67.08
2022-08-25T05:58:42.801Z,67.28
2022-08-25T05:59:42.792Z,69.10
2022-08-25T06:00:42.842Z,66.43
2022-08-25T06:01:43.551Z,65.59
2022-08-25T06:02:42.757Z,68.48
2022-08-25T06:03:42.807Z,65.88
2022-08-25T06:04:42.738Z,65.14
2022-08-25T06:05:42.731Z,66.07
2022-08-25T06:06:42.736Z,65.16
2022-08-25T06:07:42.713Z,65.66
2022-08-25T06:08:42.701Z,67.38
2022-08-25T06:09:42.690Z,66.25
2022-08-25T06:10:42.685Z,66.41
2022-08-25T06:11:42.705Z,64.96
2022-08-25T06:12:42.663Z,64.94
2022-08-25T06:13:42.652Z,65.65
2022-08-25T06:14:42.654Z,64.47
2022-08-25T06:15:42.629Z,65.04
2022-08-25T06:16:42.662Z,66.31
2022-08-25T06:17:42.623Z,65.79
2022-08-25T06:18:42.598Z,65.30
2022-08-25T06:19:42.593Z,66.09
2022-08-25T06:20:42.583Z,65.12
2022-08-25T06:21:42.592Z,64.08
2022-08-25T06:22:42.563Z,65.37
2022-08-25T06:23:42.547Z,65.72
2022-08-25T06:24:42.551Z,65.25
2022-08-25T06:25:42.540Z,65.53
2022-08-25T06:26:42.544Z,65.73
2022-08-25T06:27:42.510Z,63.65
2022-08-25T06:28:42.504Z,64.36
2022-08-25T06:29:42.499Z,63.68
2022-08-25T06:30:42.484Z,65.84
2022-08-25T06:31:42.700Z,62.83
2022-08-25T06:32:42.466Z,63.38
2022-08-25T06:33:42.459Z,63.84
2022-08-25T06:34:42.458Z,63.47
2022-08-25T06:35:42.450Z,64.93
2022-08-25T06:36:42.441Z,65.04
2022-08-25T06:37:42.416Z,64.16
2022-08-25T06:38:42.417Z,63.74
2022-08-25T06:39:42.398Z,63.41
2022-08-25T06:40:42.387Z,64.07
2022-08-25T06:41:42.395Z,63.90
2022-08-25T06:42:42.373Z,59.98
2022-08-25T06:43:48.030Z,62.99
2022-08-25T06:44:43.343Z,65.07
2022-08-25T06:45:42.340Z,62.78
2022-08-25T06:46:42.393Z,64.12
2022-08-25T06:47:42.306Z,65.39
2022-08-25T06:48:42.304Z,63.55
2022-08-25T06:49:42.299Z,64.20
2022-08-25T06:50:42.288Z,64.96
2022-08-25T06:51:42.294Z,63.36
2022-08-25T06:52:42.268Z,62.70
2022-08-25T06:53:42.262Z,64.94
2022-08-25T06:54:42.245Z,64.32
2022-08-25T06:55:42.237Z,64.54
2022-08-25T06:56:42.245Z,63.79
2022-08-25T06:57:42.224Z,63.10
2022-08-25T06:58:42.253Z,65.10
2022-08-25T06:59:42.201Z,62.73
2022-08-25T07:00:42.232Z,63.01
2022-08-25T07:01:42.292Z,62.49
2022-08-25T07:02:42.225Z,62.09
2022-08-25T07:03:42.165Z,65.20
2022-08-25T07:04:42.153Z,66.01
2022-08-25T07:05:43.919Z,64.68
2022-08-25T07:06:43.143Z,63.28
2022-08-25T07:07:43.640Z,63.40
2022-08-25T07:08:42.136Z,65.22
2022-08-25T07:09:42.119Z,64.72
2022-08-25T07:10:42.107Z,65.30
2022-08-25T07:11:42.123Z,63.03
2022-08-25T07:12:42.085Z,62.89
2022-08-25T07:13:42.099Z,62.01
2022-08-25T07:14:46.598Z,62.88
2022-08-25T07:15:43.058Z,63.67
2022-08-25T07:16:45.994Z,63.15
2022-08-25T07:17:43.042Z,61.96
2022-08-25T07:18:42.037Z,62.20
2022-08-25T07:19:42.026Z,62.40
2022-08-25T07:20:42.025Z,61.28
2022-08-25T07:21:42.026Z,63.70
2022-08-25T07:22:41.998Z,62.26
2022-08-25T07:23:41.993Z,62.96
2022-08-25T07:24:41.980Z,63.64
2022-08-25T07:25:41.967Z,62.62
2022-08-25T07:26:41.983Z,63.06
2022-08-25T07:27:42.240Z,61.77
2022-08-25T07:28:47.339Z,63.82
2022-08-25T07:29:42.931Z,64.45
2022-08-25T07:30:41.933Z,63.76
2022-08-25T07:31:42.012Z,61.64
2022-08-25T07:32:43.242Z,62.58
2022-08-25T07:33:41.895Z,65.03
2022-08-25T07:34:41.898Z,63.45
2022-08-25T07:35:43.795Z,63.72
2022-08-25T07:36:41.885Z,63.94
2022-08-25T07:37:49.743Z,63.72
2022-08-25T07:38:43.848Z,64.14
2022-08-25T07:39:41.836Z,64.35
2022-08-25T07:40:42.696Z,61.26
2022-08-25T07:41:41.849Z,63.65
2022-08-25T07:42:41.810Z,64.29
2022-08-25T07:43:41.801Z,63.53
2022-08-25T07:44:41.789Z,63.40
2022-08-25T07:45:49.496Z,62.79
2022-08-25T07:46:42.837Z,64.09
2022-08-25T07:47:41.809Z,63.53
2022-08-25T07:48:41.747Z,61.45
2022-08-25T07:49:41.741Z,63.12
2022-08-25T07:50:41.761Z,62.04
2022-08-25T07:52:04.271Z,62.86
2022-08-25T07:52:42.741Z,64.63
2022-08-25T07:53:41.708Z,65.04
2022-08-25T07:54:41.696Z,62.40
2022-08-25T07:55:41.680Z,62.17
2022-08-25T07:56:41.691Z,63.04
2022-08-25T07:57:41.667Z,62.50
2022-08-25T07:58:41.651Z,61.56
2022-08-25T07:59:41.631Z,60.66
2022-08-25T08:00:42.191Z,61.81
2022-08-25T08:01:41.682Z,61.96
2022-08-25T08:02:41.666Z,61.61
2022-08-25T08:03:50.636Z,62.18
2022-08-25T08:04:43.584Z,62.76
2022-08-25T08:05:41.579Z,60.18
2022-08-25T08:06:41.581Z,60.23
2022-08-25T08:07:43.820Z,62.86
2022-08-25T08:08:41.633Z,62.05
2022-08-25T08:09:41.540Z,63.24
2022-08-25T08:11:02.749Z,63.16
2022-08-25T08:11:53.701Z,62.70
2022-08-25T08:12:43.508Z,61.25
2022-08-25T08:13:41.640Z,61.81
2022-08-25T08:14:45.032Z,62.14
2022-08-25T08:15:41.529Z,60.97
2022-08-25T08:16:41.487Z,60.73
2022-08-25T08:17:41.473Z,62.53
2022-08-25T08:18:41.449Z,63.01
2022-08-25T08:19:44.863Z,64.75
2022-08-25T08:20:42.947Z,63.67
2022-08-25T08:21:41.451Z,62.77
2022-08-25T08:22:41.412Z,63.79
2022-08-25T08:23:41.432Z,62.82
2022-08-25T08:24:44.864Z,63.00
2022-08-25T08:25:43.377Z,61.77
2022-08-25T08:26:58.269Z,61.89
2022-08-25T08:27:43.363Z,62.17
2022-08-25T08:28:41.351Z,61.87
2022-08-25T08:29:41.336Z,62.56
2022-08-25T08:30:53.509Z,60.42
2022-08-25T08:31:48.584Z,60.76
2022-08-25T08:33:08.217Z,61.42
2022-08-25T08:33:43.304Z,60.98
2022-08-25T08:34:41.294Z,62.47
2022-08-25T08:35:41.307Z,61.44
2022-08-25T08:36:41.288Z,61.89
2022-08-25T08:37:41.262Z,61.17
2022-08-25T08:38:41.246Z,61.16
2022-08-25T08:39:41.241Z,60.76
2022-08-25T08:40:41.236Z,62.23
2022-08-25T08:42:07.672Z,59.14
2022-08-25T08:42:46.735Z,59.89
2022-08-25T08:43:41.216Z,60.47
2022-08-25T08:44:41.188Z,60.89
2022-08-25T08:45:43.990Z,58.78
2022-08-25T08:46:41.240Z,62.39
2022-08-25T08:47:41.286Z,63.21
2022-08-25T08:48:41.156Z,60.96
2022-08-25T08:49:41.148Z,60.29
2022-08-25T08:50:41.143Z,60.07
2022-08-25T08:51:41.147Z,61.23
2022-08-25T08:52:41.119Z,59.50
2022-08-25T08:53:41.115Z,59.67
2022-08-25T08:54:41.384Z,60.92
2022-08-25T08:55:41.095Z,58.54
2022-08-25T08:56:45.458Z,60.58
2022-08-25T08:57:42.155Z,61.49
2022-08-25T08:58:41.775Z,57.88
2022-08-25T08:59:41.060Z,59.40
2022-08-25T09:00:41.039Z,58.48
2022-08-25T09:01:42.090Z,61.31
2022-08-25T09:02:50.527Z,60.92
2022-08-25T09:03:42.063Z,58.01
2022-08-25T09:04:41.005Z,60.01
2022-08-25T09:05:44.951Z,57.61
2022-08-25T09:06:42.097Z,55.80
2022-08-25T09:07:42.334Z,55.43
2022-08-25T09:08:44.692Z,56.01
2022-08-25T09:09:40.957Z,58.05
2022-08-25T09:10:40.952Z,57.00
2022-08-25T09:11:40.958Z,56.44
2022-08-25T09:12:40.989Z,54.99
2022-08-25T09:13:40.928Z,55.72
2022-08-25T09:14:40.913Z,57.20
2022-08-25T09:15:41.237Z,52.93
2022-08-25T09:16:40.989Z,51.81
2022-08-25T09:17:40.885Z,53.59
2022-08-25T09:18:40.877Z,55.11
2022-08-25T09:19:42.349Z,56.73
2022-08-25T09:20:40.880Z,58.17
2022-08-25T09:21:40.861Z,55.96
2022-08-25T09:22:40.840Z,54.81
2022-08-25T09:23:40.830Z,55.52
2022-08-25T09:24:40.823Z,55.21
2022-08-25T09:25:52.728Z,54.17
2022-08-25T09:26:41.828Z,54.69
2022-08-25T09:27:40.817Z,54.60
2022-08-25T09:28:40.786Z,56.00
2022-08-25T09:29:40.772Z,56.04
2022-08-25T09:30:40.777Z,55.33
2022-08-25T09:31:40.821Z,53.42
2022-08-25T09:32:40.750Z,54.58
2022-08-25T09:33:40.740Z,55.46
2022-08-25T09:34:40.775Z,54.86
2022-08-25T09:35:40.755Z,54.09
2022-08-25T09:36:40.723Z,54.63
2022-08-25T09:37:40.701Z,55.33
2022-08-25T09:38:40.700Z,53.21
2022-08-25T09:39:40.815Z,53.85
2022-08-25T09:40:40.677Z,54.09
2022-08-25T09:41:40.688Z,53.97
2022-08-25T09:43:12.567Z,54.55
2022-08-25T09:43:40.651Z,56.45
2022-08-25T09:44:40.633Z,53.39
2022-08-25T09:45:40.633Z,57.46
2022-08-25T09:46:40.669Z,54.84
2022-08-25T09:47:40.620Z,55.09
2022-08-25T09:48:40.971Z,54.41
2022-08-25T09:49:40.590Z,54.65
2022-08-25T09:50:45.580Z,54.78
2022-08-25T09:51:43.401Z,55.16
2022-08-25T09:52:41.387Z,55.70
2022-08-25T09:53:40.560Z,54.23
2022-08-25T09:54:44.301Z,53.45
2022-08-25T09:55:41.536Z,54.34
2022-08-25T09:56:40.556Z,53.73
2022-08-25T09:57:40.516Z,57.56
2022-08-25T09:58:40.510Z,55.80
2022-08-25T09:59:40.504Z,56.66
2022-08-25T10:00:41.492Z,58.43
2022-08-25T10:01:40.537Z,56.59
2022-08-25T10:02:40.498Z,57.05
2022-08-25T10:03:40.465Z,56.02
2022-08-25T10:04:40.555Z,56.14
2022-08-25T10:05:40.448Z,57.23
2022-08-25T10:06:40.436Z,57.18
2022-08-25T10:07:40.453Z,58.13
2022-08-25T10:08:40.416Z,56.40
2022-08-25T10:09:40.411Z,56.96
2022-08-25T10:10:41.956Z,56.58
2022-08-25T10:11:40.387Z,55.89
2022-08-25T10:12:42.930Z,55.81
2022-08-25T10:13:40.371Z,55.33
2022-08-25T10:14:44.669Z,56.92
2022-08-25T10:15:40.380Z,56.60
2022-08-25T10:16:40.372Z,58.24
2022-08-25T10:17:40.350Z,58.39
2022-08-25T10:18:40.320Z,56.85
2022-08-25T10:19:40.324Z,56.81
2022-08-25T10:20:42.221Z,57.56
2022-08-25T10:21:40.297Z,59.06
2022-08-25T10:22:40.302Z,58.09
2022-08-25T10:23:40.277Z,58.40
2022-08-25T10:24:41.040Z,57.67
2022-08-25T10:25:40.276Z,58.18
2022-08-25T10:26:40.246Z,57.30
2022-08-25T10:27:40.253Z,58.03
2022-08-25T10:28:40.221Z,57.01
2022-08-25T10:29:40.858Z,58.03
2022-08-25T10:30:40.279Z,57.44
2022-08-25T10:31:41.328Z,58.10
2022-08-25T10:32:40.218Z,57.29
2022-08-25T10:33:40.187Z,57.12
2022-08-25T10:34:40.173Z,56.43
2022-08-25T10:35:40.167Z,55.26
2022-08-25T10:36:40.148Z,56.74
2022-08-25T10:37:40.175Z,56.79
2022-08-25T10:38:43.133Z,56.93
2022-08-25T10:39:40.697Z,55.96
2022-08-25T10:40:40.222Z,55.04
2022-08-25T10:41:40.106Z,53.55
2022-08-25T10:42:40.118Z,56.02
2022-08-25T10:43:40.099Z,54.13
2022-08-25T10:44:40.083Z,54.23
2022-08-25T10:45:40.075Z,55.01
2022-08-25T10:46:40.162Z,54.61
2022-08-25T10:47:40.067Z,55.32
2022-08-25T10:48:40.031Z,55.34
2022-08-25T10:49:40.028Z,54.19
2022-08-25T10:50:40.026Z,52.50
2022-08-25T10:51:41.019Z,53.72
2022-08-25T10:52:40.022Z,51.98
2022-08-25T10:53:39.987Z,52.56
2022-08-25T10:54:39.973Z,52.23
2022-08-25T10:55:40.461Z,53.23
2022-08-25T10:56:40.783Z,53.61
2022-08-25T10:57:39.977Z,51.36
2022-08-25T10:58:39.947Z,52.62
2022-08-25T10:59:39.935Z,52.61
2022-08-25T11:00:40.368Z,54.14
2022-08-25T11:01:43.938Z,55.08
2022-08-25T11:02:41.413Z,56.99
2022-08-25T11:03:39.896Z,56.73
2022-08-25T11:04:39.938Z,57.43
2022-08-25T11:05:39.971Z,57.11
2022-08-25T11:06:39.877Z,56.48
2022-08-25T11:07:39.878Z,55.77
2022-08-25T11:08:39.839Z,56.59
2022-08-25T11:09:40.212Z,56.53
2022-08-25T11:10:39.837Z,58.01
2022-08-25T11:11:39.819Z,57.51
2022-08-25T11:12:39.845Z,56.90
2022-08-25T11:13:39.802Z,56.79
2022-08-25T11:14:39.794Z,57.56
2022-08-25T11:15:46.757Z,56.73
2022-08-25T11:16:41.845Z,55.99
2022-08-25T11:17:39.778Z,57.00
2022-08-25T11:18:39.757Z,55.96
2022-08-25T11:19:39.746Z,55.55
2022-08-25T11:20:39.732Z,55.52
2022-08-25T11:21:39.730Z,56.01
2022-08-25T11:22:39.752Z,59.41
2022-08-25T11:23:39.704Z,59.06
2022-08-25T11:24:39.702Z,58.52
2022-08-25T11:25:39.681Z,58.04
2022-08-25T11:26:40.670Z,57.00
2022-08-25T11:27:39.695Z,57.27
2022-08-25T11:28:39.646Z,58.87
2022-08-25T11:29:39.645Z,57.73
2022-08-25T11:30:39.712Z,59.44
2022-08-25T11:31:39.627Z,58.44
2022-08-25T11:32:39.627Z,58.61
2022-08-25T11:33:39.607Z,57.46
2022-08-25T11:34:43.655Z,58.47
2022-08-25T11:35:39.598Z,60.33
2022-08-25T11:36:39.583Z,60.30
2022-08-25T11:37:39.591Z,59.38
2022-08-25T11:38:39.578Z,58.76
2022-08-25T11:39:40.225Z,59.06
2022-08-25T11:40:39.545Z,57.82
2022-08-25T11:41:39.543Z,57.62
2022-08-25T11:42:39.544Z,56.88
2022-08-25T11:43:40.530Z,55.32
2022-08-25T11:44:39.510Z,56.30
2022-08-25T11:45:40.571Z,56.58
2022-08-25T11:46:39.491Z,56.46
2022-08-25T11:47:39.493Z,55.16
2022-08-25T11:48:39.465Z,56.38
2022-08-25T11:49:39.462Z,55.61
2022-08-25T11:50:39.447Z,55.38
2022-08-25T11:51:39.465Z,55.51
2022-08-25T11:52:39.441Z,55.20
2022-08-25T11:53:42.143Z,55.27
2022-08-25T11:54:39.409Z,53.13
2022-08-25T11:55:39.399Z,54.12
2022-08-25T11:56:40.065Z,53.31
2022-08-25T11:57:39.444Z,51.29
2022-08-25T11:58:40.602Z,52.48
2022-08-25T11:59:39.363Z,54.20
2022-08-25T12:00:39.351Z,54.01
2022-08-25T12:01:39.348Z,54.81
2022-08-25T12:02:39.376Z,53.02
2022-08-25T12:03:39.324Z,51.55
2022-08-25T12:04:44.250Z,52.33
2022-08-25T12:05:39.339Z,53.41
2022-08-25T12:06:39.295Z,53.37
2022-08-25T12:07:39.301Z,52.99
2022-08-25T12:08:39.275Z,53.65
2022-08-25T12:09:39.264Z,56.23
2022-08-25T12:10:39.263Z,56.69
2022-08-25T12:11:39.255Z,56.13
2022-08-25T12:12:39.253Z,57.15
2022-08-25T12:13:39.225Z,56.56
2022-08-25T12:14:39.227Z,56.96
2022-08-25T12:15:39.214Z,57.93
2022-08-25T12:16:39.278Z,59.91
2022-08-25T12:17:39.455Z,56.01
2022-08-25T12:18:39.182Z,57.17
2022-08-25T12:19:40.180Z,57.89
2022-08-25T12:20:39.162Z,56.11
2022-08-25T12:21:39.161Z,57.93
2022-08-25T12:22:39.175Z,56.93
2022-08-25T12:23:45.022Z,58.10
2022-08-25T12:24:40.137Z,56.24
2022-08-25T12:25:39.116Z,56.33
2022-08-25T12:26:39.110Z,56.44
2022-08-25T12:27:39.126Z,54.29
2022-08-25T12:28:39.176Z,55.91
2022-08-25T12:29:39.092Z,56.73
2022-08-25T12:30:39.122Z,57.09
2022-08-25T12:31:39.087Z,56.52
2022-08-25T12:32:39.144Z,55.47
2022-08-25T12:33:39.047Z,55.45
2022-08-25T12:34:39.055Z,55.52
2022-08-25T12:35:39.027Z,58.58
2022-08-25T12:36:39.006Z,57.35
2022-08-25T12:37:39.027Z,58.57
2022-08-25T12:38:43.182Z,55.55
2022-08-25T12:39:40.990Z,56.71
2022-08-25T12:40:38.981Z,58.06
2022-08-25T12:41:38.972Z,57.72
2022-08-25T12:42:39.000Z,55.92
2022-08-25T12:43:38.944Z,56.33
2022-08-25T12:44:38.939Z,56.94
2022-08-25T12:45:38.984Z,58.10
2022-08-25T12:46:38.926Z,59.38
2022-08-25T12:47:40.850Z,58.63
2022-08-25T12:48:40.911Z,57.11
2022-08-25T12:49:38.907Z,56.77
2022-08-25T12:50:38.879Z,57.33
2022-08-25T12:51:38.870Z,56.69
2022-08-25T12:52:38.993Z,58.02
2022-08-25T12:53:38.860Z,57.03
2022-08-25T12:54:38.847Z,57.07
2022-08-25T12:55:38.846Z,56.60